sensor_id;sensor_type;location;lat;lon;timestamp;P1;durP1;ratioP1;P2;durP2;ratioP2
20423;SDS011;10371;49.042;8.002;2023-04-03T00:00:35;2.90;;;2.60;;
20423;SDS011;10371;49.042;8.002;2023-04-03T00:01:35;2.33;;;2.10;;
20423;SDS011;10371;49.042;8.002;2023-04-03T00:02:38;2.60;;;2.40;;
20423;SDS011;10371;49.042;8.002;2023-04-03T00:03:38;2.60;;;2.27;;
20423;SDS011;10371;49.042;8.002;2023-04-03T00:04:38;2.50;;;2.30;;
20423;SDS011;10371;49.042;8.002;2023-04-03T00:05:39;3.37;;;2.40;;
20423;SDS011;10371;49.042;8.002;2023-04-03T00:06:40;2.60;;;2.40;;
20423;SDS011;10371;49.042;8.002;2023-04-03T00:07:40;3.57;;;2.70;;
20423;SDS011;10371;49.042;8.002;2023-04-03T00:08:40;2.60;;;2.40;;
20423;SDS011;10371;49.042;8.002;2023-04-03T00:09:41;2.53;;;2.17;;
20423;SDS011;10371;49.042;8.002;2023-04-03T00:10:41;2.50;;;2.27;;
20423;SDS011;10371;49.042;8.002;2023-04-03T00:11:42;4.20;;;2.70;;
20423;SDS011;10371;49.042;8.002;2023-04-03T00:12:42;3.50;;;2.37;;
20423;SDS011;10371;49.042;8.002;2023-04-03T00:13:42;2.50;;;2.30;;
20423;SDS011;10371;49.042;8.002;2023-04-03T00:14:43;2.60;;;2.40;;
20423;SDS011;10371;49.042;8.002;2023-04-03T00:15:44;2.87;;;2.50;;
20423;SDS011;10371;49.042;8.002;2023-04-03T00:16:44;2.70;;;2.43;;
20423;SDS011;10371;49.042;8.002;2023-04-03T00:17:44;2.47;;;2.27;;
20423;SDS011;10371;49.042;8.002;2023-04-03T00:18:45;2.93;;;2.60;;
20423;SDS011;10371;49.042;8.002;2023-04-03T00:19:45;2.40;;;2.20;;
20423;SDS011;10371;49.042;8.002;2023-04-03T00:20:46;2.40;;;2.20;;
20423;SDS011;10371;49.042;8.002;2023-04-03T00:21:46;2.67;;;2.30;;
20423;SDS011;10371;49.042;8.002;2023-04-03T00:22:46;3.37;;;2.33;;
20423;SDS011;10371;49.042;8.002;2023-04-03T00:23:46;2.83;;;2.63;;
20423;SDS011;10371;49.042;8.002;2023-04-03T00:24:47;3.07;;;2.50;;
20423;SDS011;10371;49.042;8.002;2023-04-03T00:25:47;2.60;;;2.40;;
20423;SDS011;10371;49.042;8.002;2023-04-03T00:26:47;2.37;;;2.10;;
20423;SDS011;10371;49.042;8.002;2023-04-03T00:27:47;2.30;;;2.10;;
20423;SDS011;10371;49.042;8.002;2023-04-03T00:28:48;2.67;;;2.33;;
20423;SDS011;10371;49.042;8.002;2023-04-03T00:29:48;2.70;;;2.50;;
20423;SDS011;10371;49.042;8.002;2023-04-03T00:30:49;2.23;;;2.10;;
20423;SDS011;10371;49.042;8.002;2023-04-03T00:31:50;2.53;;;2.23;;
20423;SDS011;10371;49.042;8.002;2023-04-03T00:32:50;3.20;;;2.20;;
20423;SDS011;10371;49.042;8.002;2023-04-03T00:33:51;2.40;;;2.20;;
20423;SDS011;10371;49.042;8.002;2023-04-03T00:34:52;2.43;;;2.27;;
20423;SDS011;10371;49.042;8.002;2023-04-03T00:35:52;3.00;;;2.27;;
20423;SDS011;10371;49.042;8.002;2023-04-03T00:36:52;3.10;;;2.40;;
20423;SDS011;10371;49.042;8.002;2023-04-03T00:37:53;2.30;;;2.10;;
20423;SDS011;10371;49.042;8.002;2023-04-03T00:38:55;2.30;;;2.00;;
20423;SDS011;10371;49.042;8.002;2023-04-03T00:39:55;2.80;;;2.30;;
20423;SDS011;10371;49.042;8.002;2023-04-03T00:40:56;2.70;;;2.50;;
20423;SDS011;10371;49.042;8.002;2023-04-03T00:41:56;2.30;;;2.10;;
20423;SDS011;10371;49.042;8.002;2023-04-03T00:42:57;2.60;;;2.40;;
20423;SDS011;10371;49.042;8.002;2023-04-03T00:43:59;2.90;;;2.57;;
20423;SDS011;10371;49.042;8.002;2023-04-03T00:46:00;2.70;;;2.40;;
20423;SDS011;10371;49.042;8.002;2023-04-03T00:47:01;2.60;;;2.40;;
20423;SDS011;10371;49.042;8.002;2023-04-03T00:48:07;2.27;;;2.13;;
20423;SDS011;10371;49.042;8.002;2023-04-03T00:49:10;2.47;;;2.27;;
20423;SDS011;10371;49.042;8.002;2023-04-03T00:50:10;2.97;;;2.43;;
20423;SDS011;10371;49.042;8.002;2023-04-03T00:51:14;3.40;;;2.60;;
20423;SDS011;10371;49.042;8.002;2023-04-03T00:52:20;3.93;;;2.50;;
20423;SDS011;10371;49.042;8.002;2023-04-03T00:53:31;2.73;;;2.30;;
20423;SDS011;10371;49.042;8.002;2023-04-03T00:54:36;2.40;;;2.20;;
20423;SDS011;10371;49.042;8.002;2023-04-03T00:55:37;2.70;;;2.50;;
20423;SDS011;10371;49.042;8.002;2023-04-03T00:56:38;2.97;;;2.50;;
20423;SDS011;10371;49.042;8.002;2023-04-03T00:57:38;2.67;;;2.47;;
20423;SDS011;10371;49.042;8.002;2023-04-03T00:58:41;4.10;;;2.47;;
20423;SDS011;10371;49.042;8.002;2023-04-03T00:59:48;3.30;;;2.20;;
20423;SDS011;10371;49.042;8.002;2023-04-03T01:00:53;3.20;;;2.47;;
20423;SDS011;10371;49.042;8.002;2023-04-03T01:01:57;2.53;;;2.30;;
20423;SDS011;10371;49.042;8.002;2023-04-03T01:02:59;2.93;;;2.40;;
20423;SDS011;10371;49.042;8.002;2023-04-03T01:04:00;2.40;;;2.20;;
20423;SDS011;10371;49.042;8.002;2023-04-03T01:05:00;2.97;;;2.57;;
20423;SDS011;10371;49.042;8.002;2023-04-03T01:06:01;4.73;;;2.57;;
20423;SDS011;10371;49.042;8.002;2023-04-03T01:07:06;3.17;;;2.47;;
20423;SDS011;10371;49.042;8.002;2023-04-03T01:08:09;2.87;;;2.20;;
20423;SDS011;10371;49.042;8.002;2023-04-03T01:09:10;3.87;;;2.50;;
20423;SDS011;10371;49.042;8.002;2023-04-03T01:10:11;2.97;;;2.47;;
20423;SDS011;10371;49.042;8.002;2023-04-03T01:11:14;3.17;;;2.40;;
20423;SDS011;10371;49.042;8.002;2023-04-03T01:13:29;3.67;;;2.50;;
20423;SDS011;10371;49.042;8.002;2023-04-03T01:14:32;2.37;;;2.17;;
20423;SDS011;10371;49.042;8.002;2023-04-03T01:15:32;3.17;;;2.50;;
20423;SDS011;10371;49.042;8.002;2023-04-03T01:16:34;3.87;;;2.40;;
20423;SDS011;10371;49.042;8.002;2023-04-03T01:17:36;3.03;;;2.43;;
20423;SDS011;10371;49.042;8.002;2023-04-03T01:18:39;2.53;;;2.33;;
20423;SDS011;10371;49.042;8.002;2023-04-03T01:19:40;2.43;;;2.23;;
20423;SDS011;10371;49.042;8.002;2023-04-03T01:22:14;2.63;;;2.43;;
20423;SDS011;10371;49.042;8.002;2023-04-03T01:23:25;2.53;;;2.30;;
20423;SDS011;10371;49.042;8.002;2023-04-03T01:24:47;2.93;;;2.30;;
20423;SDS011;10371;49.042;8.002;2023-04-03T01:25:49;2.73;;;2.47;;
20423;SDS011;10371;49.042;8.002;2023-04-03T01:26:51;2.50;;;2.30;;
20423;SDS011;10371;49.042;8.002;2023-04-03T01:27:51;2.60;;;2.27;;
20423;SDS011;10371;49.042;8.002;2023-04-03T01:28:53;3.93;;;2.50;;
20423;SDS011;10371;49.042;8.002;2023-04-03T01:29:55;2.37;;;2.17;;
20423;SDS011;10371;49.042;8.002;2023-04-03T01:31:10;2.77;;;2.50;;
20423;SDS011;10371;49.042;8.002;2023-04-03T01:32:26;2.40;;;2.20;;
20423;SDS011;10371;49.042;8.002;2023-04-03T01:33:27;2.47;;;2.27;;
20423;SDS011;10371;49.042;8.002;2023-04-03T01:34:27;2.50;;;2.30;;
20423;SDS011;10371;49.042;8.002;2023-04-03T01:35:29;2.30;;;2.10;;
20423;SDS011;10371;49.042;8.002;2023-04-03T01:36:30;2.50;;;2.30;;
20423;SDS011;10371;49.042;8.002;2023-04-03T01:37:31;2.63;;;2.13;;
20423;SDS011;10371;49.042;8.002;2023-04-03T01:38:31;2.80;;;2.30;;
20423;SDS011;10371;49.042;8.002;2023-04-03T01:39:32;5.00;;;2.73;;
20423;SDS011;10371;49.042;8.002;2023-04-03T01:40:32;3.07;;;2.40;;
20423;SDS011;10371;49.042;8.002;2023-04-03T01:41:33;2.37;;;2.17;;
20423;SDS011;10371;49.042;8.002;2023-04-03T01:42:33;2.97;;;2.23;;
20423;SDS011;10371;49.042;8.002;2023-04-03T01:43:33;2.47;;;2.23;;
20423;SDS011;10371;49.042;8.002;2023-04-03T01:44:34;3.57;;;2.30;;
20423;SDS011;10371;49.042;8.002;2023-04-03T01:45:35;2.93;;;2.50;;
20423;SDS011;10371;49.042;8.002;2023-04-03T01:46:35;2.97;;;2.20;;
20423;SDS011;10371;49.042;8.002;2023-04-03T01:47:37;2.90;;;2.47;;
20423;SDS011;10371;49.042;8.002;2023-04-03T01:48:37;2.40;;;2.30;;
20423;SDS011;10371;49.042;8.002;2023-04-03T01:49:38;2.40;;;2.20;;
20423;SDS011;10371;49.042;8.002;2023-04-03T01:50:38;3.10;;;2.30;;
20423;SDS011;10371;49.042;8.002;2023-04-03T01:51:39;3.17;;;2.27;;
20423;SDS011;10371;49.042;8.002;2023-04-03T01:52:39;2.50;;;2.10;;
20423;SDS011;10371;49.042;8.002;2023-04-03T01:53:39;3.23;;;2.40;;
20423;SDS011;10371;49.042;8.002;2023-04-03T01:54:40;3.57;;;2.40;;
20423;SDS011;10371;49.042;8.002;2023-04-03T01:55:40;2.77;;;2.40;;
20423;SDS011;10371;49.042;8.002;2023-04-03T01:56:40;2.50;;;2.30;;
20423;SDS011;10371;49.042;8.002;2023-04-03T01:57:40;2.83;;;2.43;;
20423;SDS011;10371;49.042;8.002;2023-04-03T01:58:41;2.53;;;2.30;;
20423;SDS011;10371;49.042;8.002;2023-04-03T01:59:41;2.30;;;2.10;;
20423;SDS011;10371;49.042;8.002;2023-04-03T02:00:41;2.60;;;2.40;;
20423;SDS011;10371;49.042;8.002;2023-04-03T02:01:41;2.70;;;2.50;;
20423;SDS011;10371;49.042;8.002;2023-04-03T02:02:43;2.83;;;2.63;;
20423;SDS011;10371;49.042;8.002;2023-04-03T02:03:43;2.83;;;2.50;;
20423;SDS011;10371;49.042;8.002;2023-04-03T02:04:44;2.50;;;2.30;;
20423;SDS011;10371;49.042;8.002;2023-04-03T02:05:44;3.00;;;2.60;;
20423;SDS011;10371;49.042;8.002;2023-04-03T02:06:45;3.13;;;2.50;;
20423;SDS011;10371;49.042;8.002;2023-04-03T02:07:45;2.70;;;2.50;;
20423;SDS011;10371;49.042;8.002;2023-04-03T02:08:45;2.87;;;2.50;;
20423;SDS011;10371;49.042;8.002;2023-04-03T02:09:46;2.77;;;2.57;;
20423;SDS011;10371;49.042;8.002;2023-04-03T02:10:47;2.80;;;2.50;;
20423;SDS011;10371;49.042;8.002;2023-04-03T02:11:48;3.17;;;2.70;;
20423;SDS011;10371;49.042;8.002;2023-04-03T02:12:48;3.17;;;2.57;;
20423;SDS011;10371;49.042;8.002;2023-04-03T02:13:49;4.03;;;2.70;;
20423;SDS011;10371;49.042;8.002;2023-04-03T02:14:50;3.57;;;2.60;;
20423;SDS011;10371;49.042;8.002;2023-04-03T02:15:50;2.73;;;2.47;;
20423;SDS011;10371;49.042;8.002;2023-04-03T02:16:50;3.23;;;2.50;;
20423;SDS011;10371;49.042;8.002;2023-04-03T02:17:51;2.80;;;2.60;;
20423;SDS011;10371;49.042;8.002;2023-04-03T02:18:52;2.87;;;2.60;;
20423;SDS011;10371;49.042;8.002;2023-04-03T02:19:52;2.70;;;2.43;;
20423;SDS011;10371;49.042;8.002;2023-04-03T02:20:52;3.47;;;2.40;;
20423;SDS011;10371;49.042;8.002;2023-04-03T02:21:53;4.17;;;2.53;;
20423;SDS011;10371;49.042;8.002;2023-04-03T02:22:53;2.93;;;2.50;;
20423;SDS011;10371;49.042;8.002;2023-04-03T02:23:53;3.20;;;2.23;;
20423;SDS011;10371;49.042;8.002;2023-04-03T02:24:53;2.80;;;2.37;;
20423;SDS011;10371;49.042;8.002;2023-04-03T02:26:02;2.73;;;2.30;;
20423;SDS011;10371;49.042;8.002;2023-04-03T02:27:03;3.70;;;2.30;;
20423;SDS011;10371;49.042;8.002;2023-04-03T02:28:03;3.77;;;2.57;;
20423;SDS011;10371;49.042;8.002;2023-04-03T02:29:03;2.60;;;2.20;;
20423;SDS011;10371;49.042;8.002;2023-04-03T02:30:04;3.57;;;2.50;;
20423;SDS011;10371;49.042;8.002;2023-04-03T02:31:05;3.07;;;2.80;;
20423;SDS011;10371;49.042;8.002;2023-04-03T02:32:08;3.63;;;2.60;;
20423;SDS011;10371;49.042;8.002;2023-04-03T02:33:09;3.40;;;2.50;;
20423;SDS011;10371;49.042;8.002;2023-04-03T02:34:09;2.40;;;2.20;;
20423;SDS011;10371;49.042;8.002;2023-04-03T02:35:10;3.37;;;2.40;;
20423;SDS011;10371;49.042;8.002;2023-04-03T02:36:11;2.73;;;2.30;;
20423;SDS011;10371;49.042;8.002;2023-04-03T02:37:12;2.57;;;2.37;;
20423;SDS011;10371;49.042;8.002;2023-04-03T02:38:12;4.00;;;2.50;;
20423;SDS011;10371;49.042;8.002;2023-04-03T02:39:12;2.70;;;2.50;;
20423;SDS011;10371;49.042;8.002;2023-04-03T02:40:13;3.77;;;2.50;;
20423;SDS011;10371;49.042;8.002;2023-04-03T02:41:13;5.27;;;2.47;;
20423;SDS011;10371;49.042;8.002;2023-04-03T02:42:14;2.50;;;2.30;;
20423;SDS011;10371;49.042;8.002;2023-04-03T02:43:15;2.30;;;2.10;;
20423;SDS011;10371;49.042;8.002;2023-04-03T02:44:16;2.77;;;2.13;;
20423;SDS011;10371;49.042;8.002;2023-04-03T02:45:16;2.60;;;2.40;;
20423;SDS011;10371;49.042;8.002;2023-04-03T02:46:16;2.23;;;2.10;;
20423;SDS011;10371;49.042;8.002;2023-04-03T02:47:17;3.57;;;2.60;;
20423;SDS011;10371;49.042;8.002;2023-04-03T02:48:17;2.50;;;2.30;;
20423;SDS011;10371;49.042;8.002;2023-04-03T02:49:17;4.00;;;2.57;;
20423;SDS011;10371;49.042;8.002;2023-04-03T02:50:18;3.63;;;2.50;;
20423;SDS011;10371;49.042;8.002;2023-04-03T02:51:18;2.53;;;2.33;;
20423;SDS011;10371;49.042;8.002;2023-04-03T02:52:19;2.57;;;2.30;;
20423;SDS011;10371;49.042;8.002;2023-04-03T02:53:19;2.60;;;2.40;;
20423;SDS011;10371;49.042;8.002;2023-04-03T02:54:20;2.70;;;2.40;;
20423;SDS011;10371;49.042;8.002;2023-04-03T02:55:20;2.50;;;2.30;;
20423;SDS011;10371;49.042;8.002;2023-04-03T02:56:21;2.47;;;2.27;;
20423;SDS011;10371;49.042;8.002;2023-04-03T02:57:21;2.47;;;2.13;;
20423;SDS011;10371;49.042;8.002;2023-04-03T02:58:22;2.83;;;1.90;;
20423;SDS011;10371;49.042;8.002;2023-04-03T02:59:22;3.07;;;2.47;;
20423;SDS011;10371;49.042;8.002;2023-04-03T03:00:23;4.50;;;2.37;;
20423;SDS011;10371;49.042;8.002;2023-04-03T03:01:23;3.37;;;2.40;;
20423;SDS011;10371;49.042;8.002;2023-04-03T03:02:24;4.50;;;2.60;;
20423;SDS011;10371;49.042;8.002;2023-04-03T03:03:24;2.40;;;2.20;;
20423;SDS011;10371;49.042;8.002;2023-04-03T03:04:25;3.10;;;2.27;;
20423;SDS011;10371;49.042;8.002;2023-04-03T03:05:25;4.00;;;2.40;;
20423;SDS011;10371;49.042;8.002;2023-04-03T03:06:27;2.90;;;2.27;;
20423;SDS011;10371;49.042;8.002;2023-04-03T03:07:27;2.37;;;2.17;;
20423;SDS011;10371;49.042;8.002;2023-04-03T03:08:27;3.23;;;2.30;;
20423;SDS011;10371;49.042;8.002;2023-04-03T03:09:28;3.30;;;2.40;;
20423;SDS011;10371;49.042;8.002;2023-04-03T03:10:29;3.50;;;2.50;;
20423;SDS011;10371;49.042;8.002;2023-04-03T03:11:29;2.30;;;2.10;;
20423;SDS011;10371;49.042;8.002;2023-04-03T03:12:30;2.27;;;2.07;;
20423;SDS011;10371;49.042;8.002;2023-04-03T03:13:30;2.80;;;2.40;;
20423;SDS011;10371;49.042;8.002;2023-04-03T03:14:31;2.60;;;2.40;;
20423;SDS011;10371;49.042;8.002;2023-04-03T03:15:31;3.37;;;2.40;;
20423;SDS011;10371;49.042;8.002;2023-04-03T03:16:32;3.60;;;2.57;;
20423;SDS011;10371;49.042;8.002;2023-04-03T03:17:32;2.70;;;2.40;;
20423;SDS011;10371;49.042;8.002;2023-04-03T03:18:33;4.47;;;2.60;;
20423;SDS011;10371;49.042;8.002;2023-04-03T03:19:34;2.40;;;2.20;;
20423;SDS011;10371;49.042;8.002;2023-04-03T03:20:34;3.47;;;2.50;;
20423;SDS011;10371;49.042;8.002;2023-04-03T03:21:34;2.90;;;2.60;;
20423;SDS011;10371;49.042;8.002;2023-04-03T03:22:34;2.77;;;2.57;;
20423;SDS011;10371;49.042;8.002;2023-04-03T03:23:35;3.07;;;2.80;;
20423;SDS011;10371;49.042;8.002;2023-04-03T03:24:35;5.27;;;2.73;;
20423;SDS011;10371;49.042;8.002;2023-04-03T03:25:38;3.40;;;2.70;;
20423;SDS011;10371;49.042;8.002;2023-04-03T03:26:40;3.77;;;2.80;;
20423;SDS011;10371;49.042;8.002;2023-04-03T03:27:40;3.10;;;2.80;;
20423;SDS011;10371;49.042;8.002;2023-04-03T03:28:40;3.70;;;3.00;;
20423;SDS011;10371;49.042;8.002;2023-04-03T03:29:41;2.93;;;2.63;;
20423;SDS011;10371;49.042;8.002;2023-04-03T03:30:42;4.00;;;2.87;;
20423;SDS011;10371;49.042;8.002;2023-04-03T03:31:42;3.67;;;2.97;;
20423;SDS011;10371;49.042;8.002;2023-04-03T03:32:42;3.20;;;2.90;;
20423;SDS011;10371;49.042;8.002;2023-04-03T03:33:42;3.00;;;2.80;;
20423;SDS011;10371;49.042;8.002;2023-04-03T03:34:43;3.20;;;2.80;;
20423;SDS011;10371;49.042;8.002;2023-04-03T03:35:43;3.67;;;3.23;;
20423;SDS011;10371;49.042;8.002;2023-04-03T03:36:44;3.40;;;2.97;;
20423;SDS011;10371;49.042;8.002;2023-04-03T03:37:44;3.40;;;3.10;;
20423;SDS011;10371;49.042;8.002;2023-04-03T03:38:45;3.03;;;2.83;;
20423;SDS011;10371;49.042;8.002;2023-04-03T03:39:45;3.40;;;3.03;;
20423;SDS011;10371;49.042;8.002;2023-04-03T03:40:49;3.40;;;3.10;;
20423;SDS011;10371;49.042;8.002;2023-04-03T03:41:50;3.60;;;3.20;;
20423;SDS011;10371;49.042;8.002;2023-04-03T03:42:53;3.33;;;3.00;;
20423;SDS011;10371;49.042;8.002;2023-04-03T03:43:53;3.10;;;2.90;;
20423;SDS011;10371;49.042;8.002;2023-04-03T03:44:53;3.57;;;3.03;;
20423;SDS011;10371;49.042;8.002;2023-04-03T03:45:54;3.67;;;2.90;;
20423;SDS011;10371;49.042;8.002;2023-04-03T03:46:55;3.77;;;3.47;;
20423;SDS011;10371;49.042;8.002;2023-04-03T03:47:56;3.57;;;3.07;;
20423;SDS011;10371;49.042;8.002;2023-04-03T03:48:56;3.33;;;2.97;;
20423;SDS011;10371;49.042;8.002;2023-04-03T03:49:57;3.40;;;3.10;;
20423;SDS011;10371;49.042;8.002;2023-04-03T03:50:57;3.87;;;3.40;;
20423;SDS011;10371;49.042;8.002;2023-04-03T03:51:57;3.27;;;3.03;;
20423;SDS011;10371;49.042;8.002;2023-04-03T03:52:58;3.80;;;2.83;;
20423;SDS011;10371;49.042;8.002;2023-04-03T03:53:58;3.13;;;2.93;;
20423;SDS011;10371;49.042;8.002;2023-04-03T03:54:58;3.50;;;3.17;;
20423;SDS011;10371;49.042;8.002;2023-04-03T03:55:58;3.30;;;3.00;;
20423;SDS011;10371;49.042;8.002;2023-04-03T03:56:59;3.27;;;2.90;;
20423;SDS011;10371;49.042;8.002;2023-04-03T03:57:59;3.60;;;3.30;;
20423;SDS011;10371;49.042;8.002;2023-04-03T03:59:01;3.37;;;3.00;;
20423;SDS011;10371;49.042;8.002;2023-04-03T04:00:01;3.23;;;2.93;;
20423;SDS011;10371;49.042;8.002;2023-04-03T04:01:03;3.40;;;3.20;;
20423;SDS011;10371;49.042;8.002;2023-04-03T04:02:05;3.17;;;2.83;;
20423;SDS011;10371;49.042;8.002;2023-04-03T04:03:05;3.50;;;2.90;;
20423;SDS011;10371;49.042;8.002;2023-04-03T04:04:06;3.20;;;2.90;;
20423;SDS011;10371;49.042;8.002;2023-04-03T04:05:06;3.40;;;3.10;;
20423;SDS011;10371;49.042;8.002;2023-04-03T04:06:06;3.07;;;2.77;;
20423;SDS011;10371;49.042;8.002;2023-04-03T04:07:07;3.53;;;2.70;;
20423;SDS011;10371;49.042;8.002;2023-04-03T04:08:07;3.20;;;3.00;;
20423;SDS011;10371;49.042;8.002;2023-04-03T04:09:08;3.00;;;2.70;;
20423;SDS011;10371;49.042;8.002;2023-04-03T04:10:09;3.30;;;3.00;;
20423;SDS011;10371;49.042;8.002;2023-04-03T04:11:09;3.20;;;2.90;;
20423;SDS011;10371;49.042;8.002;2023-04-03T04:12:10;3.00;;;2.73;;
20423;SDS011;10371;49.042;8.002;2023-04-03T04:13:10;4.07;;;3.10;;
20423;SDS011;10371;49.042;8.002;2023-04-03T04:14:10;3.60;;;3.30;;
20423;SDS011;10371;49.042;8.002;2023-04-03T04:15:12;2.93;;;2.73;;
20423;SDS011;10371;49.042;8.002;2023-04-03T04:16:12;4.23;;;2.80;;
20423;SDS011;10371;49.042;8.002;2023-04-03T04:17:13;3.40;;;3.10;;
20423;SDS011;10371;49.042;8.002;2023-04-03T04:18:14;3.83;;;3.00;;
20423;SDS011;10371;49.042;8.002;2023-04-03T04:19:14;3.20;;;2.90;;
20423;SDS011;10371;49.042;8.002;2023-04-03T04:20:14;3.80;;;3.43;;
20423;SDS011;10371;49.042;8.002;2023-04-03T04:21:15;3.23;;;2.93;;
20423;SDS011;10371;49.042;8.002;2023-04-03T04:22:15;3.83;;;3.47;;
20423;SDS011;10371;49.042;8.002;2023-04-03T04:23:16;3.37;;;3.00;;
20423;SDS011;10371;49.042;8.002;2023-04-03T04:24:17;3.90;;;3.03;;
20423;SDS011;10371;49.042;8.002;2023-04-03T04:25:17;3.10;;;2.80;;
20423;SDS011;10371;49.042;8.002;2023-04-03T04:26:18;4.40;;;3.20;;
20423;SDS011;10371;49.042;8.002;2023-04-03T04:27:18;3.40;;;3.10;;
20423;SDS011;10371;49.042;8.002;2023-04-03T04:28:18;3.33;;;3.03;;
20423;SDS011;10371;49.042;8.002;2023-04-03T04:29:19;3.23;;;3.00;;
20423;SDS011;10371;49.042;8.002;2023-04-03T04:30:19;3.10;;;2.80;;
20423;SDS011;10371;49.042;8.002;2023-04-03T04:31:19;3.40;;;3.10;;
20423;SDS011;10371;49.042;8.002;2023-04-03T04:32:20;3.40;;;3.10;;
20423;SDS011;10371;49.042;8.002;2023-04-03T04:33:20;4.10;;;3.23;;
20423;SDS011;10371;49.042;8.002;2023-04-03T04:34:20;3.50;;;3.20;;
20423;SDS011;10371;49.042;8.002;2023-04-03T04:35:20;4.20;;;3.20;;
20423;SDS011;10371;49.042;8.002;2023-04-03T04:36:21;3.13;;;2.93;;
20423;SDS011;10371;49.042;8.002;2023-04-03T04:37:21;4.20;;;2.90;;
20423;SDS011;10371;49.042;8.002;2023-04-03T04:38:21;4.33;;;3.10;;
20423;SDS011;10371;49.042;8.002;2023-04-03T04:39:21;3.27;;;2.97;;
20423;SDS011;10371;49.042;8.002;2023-04-03T04:40:22;3.30;;;3.00;;
20423;SDS011;10371;49.042;8.002;2023-04-03T04:41:22;3.67;;;3.00;;
20423;SDS011;10371;49.042;8.002;2023-04-03T04:42:23;3.50;;;2.97;;
20423;SDS011;10371;49.042;8.002;2023-04-03T04:43:23;3.13;;;2.87;;
20423;SDS011;10371;49.042;8.002;2023-04-03T04:44:23;3.20;;;2.90;;
20423;SDS011;10371;49.042;8.002;2023-04-03T04:45:23;3.20;;;2.90;;
20423;SDS011;10371;49.042;8.002;2023-04-03T04:46:24;3.80;;;2.90;;
20423;SDS011;10371;49.042;8.002;2023-04-03T04:47:24;4.30;;;3.13;;
20423;SDS011;10371;49.042;8.002;2023-04-03T04:48:24;3.40;;;3.10;;
20423;SDS011;10371;49.042;8.002;2023-04-03T04:49:25;3.37;;;3.07;;
20423;SDS011;10371;49.042;8.002;2023-04-03T04:50:25;3.10;;;2.80;;
20423;SDS011;10371;49.042;8.002;2023-04-03T04:51:25;3.10;;;2.80;;
20423;SDS011;10371;49.042;8.002;2023-04-03T04:52:26;3.53;;;3.20;;
20423;SDS011;10371;49.042;8.002;2023-04-03T04:53:26;5.63;;;3.27;;
20423;SDS011;10371;49.042;8.002;2023-04-03T04:54:26;3.37;;;3.07;;
20423;SDS011;10371;49.042;8.002;2023-04-03T04:55:26;3.53;;;3.10;;
20423;SDS011;10371;49.042;8.002;2023-04-03T04:56:27;3.53;;;3.00;;
20423;SDS011;10371;49.042;8.002;2023-04-03T04:57:27;3.00;;;2.80;;
20423;SDS011;10371;49.042;8.002;2023-04-03T04:58:27;3.13;;;2.83;;
20423;SDS011;10371;49.042;8.002;2023-04-03T04:59:27;3.43;;;3.13;;
20423;SDS011;10371;49.042;8.002;2023-04-03T05:00:28;3.60;;;3.30;;
20423;SDS011;10371;49.042;8.002;2023-04-03T05:01:28;3.43;;;3.13;;
20423;SDS011;10371;49.042;8.002;2023-04-03T05:02:28;3.40;;;2.83;;
20423;SDS011;10371;49.042;8.002;2023-04-03T05:03:29;5.63;;;3.47;;
20423;SDS011;10371;49.042;8.002;2023-04-03T05:04:29;3.50;;;3.20;;
20423;SDS011;10371;49.042;8.002;2023-04-03T05:05:29;4.30;;;3.10;;
20423;SDS011;10371;49.042;8.002;2023-04-03T05:06:30;3.33;;;3.03;;
20423;SDS011;10371;49.042;8.002;2023-04-03T05:07:31;3.53;;;3.10;;
20423;SDS011;10371;49.042;8.002;2023-04-03T05:08:32;3.20;;;2.90;;
20423;SDS011;10371;49.042;8.002;2023-04-03T05:09:32;3.63;;;3.20;;
20423;SDS011;10371;49.042;8.002;2023-04-03T05:10:33;5.50;;;3.23;;
20423;SDS011;10371;49.042;8.002;2023-04-03T05:11:33;3.80;;;3.30;;
20423;SDS011;10371;49.042;8.002;2023-04-03T05:12:33;4.47;;;3.03;;
20423;SDS011;10371;49.042;8.002;2023-04-03T05:13:33;3.57;;;3.27;;
20423;SDS011;10371;49.042;8.002;2023-04-03T05:14:34;5.90;;;3.70;;
20423;SDS011;10371;49.042;8.002;2023-04-03T05:15:34;4.57;;;3.47;;
20423;SDS011;10371;49.042;8.002;2023-04-03T05:16:34;3.70;;;3.40;;
20423;SDS011;10371;49.042;8.002;2023-04-03T05:17:35;3.40;;;3.03;;
20423;SDS011;10371;49.042;8.002;2023-04-03T05:18:35;3.80;;;3.40;;
20423;SDS011;10371;49.042;8.002;2023-04-03T05:19:35;3.40;;;3.10;;
20423;SDS011;10371;49.042;8.002;2023-04-03T05:20:36;3.37;;;3.03;;
20423;SDS011;10371;49.042;8.002;2023-04-03T05:21:37;3.60;;;2.97;;
20423;SDS011;10371;49.042;8.002;2023-04-03T05:22:37;5.17;;;3.40;;
20423;SDS011;10371;49.042;8.002;2023-04-03T05:23:37;3.70;;;3.40;;
20423;SDS011;10371;49.042;8.002;2023-04-03T05:24:37;3.70;;;3.40;;
20423;SDS011;10371;49.042;8.002;2023-04-03T05:25:38;3.57;;;3.00;;
20423;SDS011;10371;49.042;8.002;2023-04-03T05:26:38;3.53;;;3.23;;
20423;SDS011;10371;49.042;8.002;2023-04-03T05:27:39;3.50;;;3.20;;
20423;SDS011;10371;49.042;8.002;2023-04-03T05:28:39;3.20;;;2.90;;
20423;SDS011;10371;49.042;8.002;2023-04-03T05:29:40;3.30;;;3.00;;
20423;SDS011;10371;49.042;8.002;2023-04-03T05:30:43;3.53;;;3.27;;
20423;SDS011;10371;49.042;8.002;2023-04-03T05:31:43;3.63;;;3.33;;
20423;SDS011;10371;49.042;8.002;2023-04-03T05:32:44;3.27;;;2.97;;
20423;SDS011;10371;49.042;8.002;2023-04-03T05:33:45;3.90;;;3.37;;
20423;SDS011;10371;49.042;8.002;2023-04-03T05:34:46;3.33;;;3.03;;
20423;SDS011;10371;49.042;8.002;2023-04-03T05:35:46;3.97;;;3.27;;
20423;SDS011;10371;49.042;8.002;2023-04-03T05:36:46;3.80;;;3.50;;
20423;SDS011;10371;49.042;8.002;2023-04-03T05:37:47;3.23;;;3.00;;
20423;SDS011;10371;49.042;8.002;2023-04-03T05:38:48;3.50;;;3.10;;
20423;SDS011;10371;49.042;8.002;2023-04-03T05:39:48;4.83;;;3.53;;
20423;SDS011;10371;49.042;8.002;2023-04-03T05:40:49;3.80;;;3.50;;
20423;SDS011;10371;49.042;8.002;2023-04-03T05:41:49;3.67;;;3.33;;
20423;SDS011;10371;49.042;8.002;2023-04-03T05:42:49;4.27;;;3.80;;
20423;SDS011;10371;49.042;8.002;2023-04-03T05:43:50;3.57;;;3.27;;
20423;SDS011;10371;49.042;8.002;2023-04-03T05:44:50;3.83;;;3.53;;
20423;SDS011;10371;49.042;8.002;2023-04-03T05:45:50;4.30;;;3.30;;
20423;SDS011;10371;49.042;8.002;2023-04-03T05:46:51;3.40;;;3.10;;
20423;SDS011;10371;49.042;8.002;2023-04-03T05:47:51;4.00;;;3.63;;
20423;SDS011;10371;49.042;8.002;2023-04-03T05:48:52;4.37;;;3.43;;
20423;SDS011;10371;49.042;8.002;2023-04-03T05:49:52;3.77;;;3.40;;
20423;SDS011;10371;49.042;8.002;2023-04-03T05:50:52;3.53;;;3.23;;
20423;SDS011;10371;49.042;8.002;2023-04-03T05:51:52;3.47;;;3.17;;
20423;SDS011;10371;49.042;8.002;2023-04-03T05:52:54;3.80;;;3.47;;
20423;SDS011;10371;49.042;8.002;2023-04-03T05:53:59;3.97;;;3.60;;
20423;SDS011;10371;49.042;8.002;2023-04-03T05:55:06;3.57;;;3.20;;
20423;SDS011;10371;49.042;8.002;2023-04-03T05:56:06;3.70;;;3.40;;
20423;SDS011;10371;49.042;8.002;2023-04-03T05:57:07;3.67;;;3.37;;
20423;SDS011;10371;49.042;8.002;2023-04-03T05:58:07;3.30;;;3.00;;
20423;SDS011;10371;49.042;8.002;2023-04-03T05:59:07;3.20;;;2.90;;
20423;SDS011;10371;49.042;8.002;2023-04-03T06:00:08;4.60;;;3.30;;
20423;SDS011;10371;49.042;8.002;2023-04-03T06:01:12;3.30;;;3.00;;
20423;SDS011;10371;49.042;8.002;2023-04-03T06:02:14;3.10;;;2.90;;
20423;SDS011;10371;49.042;8.002;2023-04-03T06:03:18;3.70;;;3.40;;
20423;SDS011;10371;49.042;8.002;2023-04-03T06:04:19;3.83;;;2.73;;
20423;SDS011;10371;49.042;8.002;2023-04-03T06:05:19;4.30;;;3.40;;
20423;SDS011;10371;49.042;8.002;2023-04-03T06:06:20;3.20;;;2.90;;
20423;SDS011;10371;49.042;8.002;2023-04-03T06:07:22;3.30;;;3.03;;
20423;SDS011;10371;49.042;8.002;2023-04-03T06:08:26;3.17;;;2.87;;
20423;SDS011;10371;49.042;8.002;2023-04-03T06:09:27;4.70;;;3.20;;
20423;SDS011;10371;49.042;8.002;2023-04-03T06:10:29;3.20;;;2.63;;
20423;SDS011;10371;49.042;8.002;2023-04-03T06:11:29;3.70;;;3.03;;